Mc Clure, Ohio
Current Conditions -  °F | °C
As of 11:52 PM on Tuesday 25 Nov 2014 (Local Time) from KTOL Reporting Station
Overcast Overcast  
Wind Chill: 28°   Ceiling: 2100
Heat Index: 28°   Visibility: 10mi
Dew Point: 20°   Wind: 3mph
Humidity: 72%   Direction: 350°N
Pressure: 30.22"   Gusts: NA
Location:  41.3795°N, 83.942°W
Report Text: KTOL 260452Z 35003KT 10SM OVC021 M02/M07 A3022 RMK AO2 SNB07E22 SLP240 P0000 T10221067 400171028
Loading
Personal Weather Stations






























Interactive Weather Map New forecast layout! Learn more

10-Day Weather Forecast

Advertisements
Track Severe Weather on mobile